Time;durP1;ratioP1;P1;durP2;ratioP2;P2;SDS_P1;SDS_P2;PMS_P1;PMS_P2;Temp;Humidity;BMP_temperature;BMP_pressure;BME280_temperature;BME280_humidity;BME280_pressure;Samples;Min_cycle;Max_cycle;Signal;HPM_P1;HPM_P2
2023/01/27 00:00:19;;;;;;;38.72;25.63;;;77.70;2227.20;;;;;;5014136;28;20442;-66
2023/01/27 00:02:45;;;;;;;40.83;25.98;;;77.70;2227.20;;;;;;5032826;28;20033;-63
2023/01/27 00:05:12;;;;;;;44.38;28.10;;;77.70;2227.20;;;;;;5032510;28;20103;-62
2023/01/27 00:07:44;;;;;;;49.58;29.23;;;102.40;2227.20;;;;;;5032354;28;20378;-63
2023/01/27 00:10:14;;;;;;;49.05;29.35;;;102.40;2227.20;;;;;;5032357;28;20025;-65
2023/01/27 00:15:25;;;;;;;56.83;34.67;;;77.60;2227.20;;;;;;5032937;28;20041;-63
2023/01/27 00:17:50;;;;;;;60.67;37.28;;;77.70;2227.20;;;;;;5032296;28;20022;-63
2023/01/27 00:25:49;;;;;;;52.10;32.00;;;77.60;2227.20;;;;;;5032207;28;20087;-66
2023/01/27 00:28:22;;;;;;;64.63;41.70;;;77.70;2227.20;;;;;;5032233;28;20032;-63
2023/01/27 00:30:49;;;;;;;58.45;36.03;;;77.70;2227.20;;;;;;5032069;28;20022;-63
2023/01/27 00:33:23;;;;;;;59.13;37.10;;;102.40;2227.20;;;;;;5032065;28;20416;-62
2023/01/27 00:35:49;;;;;;;57.75;36.65;;;77.70;2227.20;;;;;;5031680;28;20040;-62
2023/01/27 00:38:15;;;;;;;42.60;29.50;;;102.40;2227.20;;;;;;5031888;28;20029;-62
2023/01/27 00:41:13;;;;;;;54.15;32.72;;;102.40;2227.20;;;;;;5031732;28;20464;-62
2023/01/27 00:43:26;;;;;;;56.10;33.60;;;102.40;2227.20;;;;;;5031481;28;20040;-63
2023/01/27 00:45:51;;;;;;;51.17;34.72;;;102.40;2227.20;;;;;;5031751;28;20049;-66
2023/01/27 00:48:17;;;;;;;54.42;34.05;;;77.60;2227.20;;;;;;5031638;28;20053;-63
2023/01/27 00:50:43;;;;;;;56.00;34.55;;;77.70;2227.20;;;;;;5031552;28;20029;-64
2023/01/27 00:53:08;;;;;;;57.00;34.17;;;102.40;2227.20;;;;;;5031301;28;20033;-64
2023/01/27 00:55:34;;;;;;;57.13;34.60;;;102.40;2227.20;;;;;;5031713;28;20044;-63
2023/01/27 00:58:00;;;;;;;60.08;36.10;;;102.40;2227.20;;;;;;5031286;28;20021;-63
2023/01/27 01:00:25;;;;;;;52.00;33.28;;;102.50;2227.20;;;;;;5031612;28;20099;-64
2023/01/27 01:02:51;;;;;;;52.58;31.17;;;102.50;2227.20;;;;;;5031403;28;20024;-63
2023/01/27 01:05:17;;;;;;;47.75;28.80;;;102.40;2227.20;;;;;;5030877;28;20033;-62
2023/01/27 01:07:42;;;;;;;44.13;29.10;;;77.70;2227.20;;;;;;5031429;28;20032;-62
2023/01/27 01:10:09;;;;;;;51.22;30.13;;;102.40;2227.20;;;;;;5031175;28;20025;-63
2023/01/27 01:12:34;;;;;;;53.40;31.15;;;102.40;2227.20;;;;;;5031218;28;20033;-65
2023/01/27 01:15:00;;;;;;;47.08;29.10;;;77.70;2227.20;;;;;;5030874;28;20033;-63
2023/01/27 01:17:26;;;;;;;42.67;29.02;;;77.50;2227.20;;;;;;5031262;28;20022;-63
2023/01/27 01:19:51;;;;;;;37.08;23.58;;;77.50;2227.20;;;;;;5031294;28;20028;-63
2023/01/27 01:22:17;;;;;;;41.55;25.30;;;77.50;2227.20;;;;;;5030571;28;20033;-63
2023/01/27 01:24:43;;;;;;;43.50;26.55;;;77.60;2227.20;;;;;;5030305;28;20128;-63
2023/01/27 01:27:08;;;;;;;40.72;26.05;;;77.70;2227.20;;;;;;5030870;28;20021;-64
2023/01/27 01:29:34;;;;;;;35.47;25.48;;;102.40;2227.20;;;;;;5030969;28;20044;-64
2023/01/27 01:32:00;;;;;;;30.27;20.27;;;102.40;2227.20;;;;;;5030953;28;20025;-64
2023/01/27 01:34:26;;;;;;;35.03;23.65;;;102.40;2227.20;;;;;;5030850;28;20395;-64
2023/01/27 01:36:51;;;;;;;34.75;22.17;;;77.60;2227.20;;;;;;5030724;28;20025;-63
2023/01/27 01:39:17;;;;;;;27.63;18.80;;;77.70;2227.20;;;;;;5030968;28;20139;-64
2023/01/27 01:41:43;;;;;;;41.13;21.88;;;77.70;2227.20;;;;;;5030907;28;20030;-63
2023/01/27 01:44:21;;;;;;;28.45;18.35;;;77.50;2227.20;;;;;;5030545;28;20026;-63
2023/01/27 01:46:47;;;;;;;31.25;18.25;;;77.50;2227.20;;;;;;5030245;28;20403;-62
2023/01/27 01:49:14;;;;;;;25.23;17.15;;;77.60;2227.20;;;;;;5030765;28;20021;-62
2023/01/27 01:51:44;;;;;;;29.67;18.02;;;77.50;2227.20;;;;;;5030227;28;20419;-62
2023/01/27 01:54:22;;;;;;;35.55;20.33;;;77.60;2227.20;;;;;;5030584;28;20049;-62
2023/01/27 01:56:56;;;;;;;30.38;20.08;;;77.60;2227.20;;;;;;5030327;28;20026;-62
2023/01/27 01:59:31;;;;;;;30.10;19.40;;;77.60;2227.20;;;;;;5030572;28;20034;-63
2023/01/27 02:02:02;;;;;;;32.55;20.60;;;77.60;2227.20;;;;;;5030285;28;20021;-62
2023/01/27 02:04:52;;;;;;;30.23;19.98;;;77.60;2227.20;;;;;;5030211;28;20028;-62
2023/01/27 02:08:07;;;;;;;72.95;46.75;;;77.60;2227.20;;;;;;5029407;28;20033;-63
2023/01/27 02:10:33;;;;;;;38.70;25.95;;;77.70;2227.20;;;;;;4949227;28;20111;-65
2023/01/27 02:12:59;;;;;;;67.40;41.78;;;77.70;2227.20;;;;;;4950298;29;20031;-64
2023/01/27 02:15:25;;;;;;;35.45;23.45;;;77.70;2227.20;;;;;;4950360;29;20449;-64
2023/01/27 02:17:51;;;;;;;35.30;22.33;;;77.70;2227.20;;;;;;4950252;29;20066;-63
2023/01/27 02:20:25;;;;;;;38.00;22.40;;;77.70;2227.20;;;;;;4950063;29;20070;-63
2023/01/27 02:23:16;;;;;;;30.40;18.92;;;77.60;2227.20;;;;;;4949943;29;20122;-62
2023/01/27 02:26:05;;;;;;;27.55;17.00;;;77.40;2227.20;;;;;;4950119;29;20123;-62
2023/01/27 02:28:31;;;;;;;23.60;14.45;;;77.40;2227.20;;;;;;4950046;29;20046;-63
2023/01/27 02:30:57;;;;;;;23.77;14.95;;;77.50;2227.20;;;;;;4949921;29;20024;-62
2023/01/27 02:33:23;;;;;;;31.40;16.67;;;77.50;2227.20;;;;;;4950168;29;20090;-62
2023/01/27 02:35:59;;;;;;;21.70;15.30;;;77.50;2227.20;;;;;;4952509;28;20545;-62
2023/01/27 02:38:29;;;;;;;21.83;15.52;;;77.50;2227.20;;;;;;4953801;28;20061;-63
2023/01/27 02:41:03;;;;;;;23.08;14.80;;;77.60;2227.20;;;;;;4953875;29;20097;-63
2023/01/27 02:43:29;;;;;;;19.90;13.32;;;77.60;2227.20;;;;;;4953685;29;20595;-62
2023/01/27 02:45:55;;;;;;;20.80;12.98;;;77.60;2227.20;;;;;;4964743;28;20043;-62
2023/01/27 02:48:21;;;;;;;17.95;11.75;;;77.60;2227.20;;;;;;5033789;28;20036;-62
2023/01/27 02:50:46;;;;;;;18.48;12.02;;;77.50;2227.20;;;;;;5034152;28;20104;-62
2023/01/27 02:53:12;;;;;;;23.35;17.77;;;77.50;2227.20;;;;;;5033603;28;20088;-62
2023/01/27 02:55:38;;;;;;;22.92;14.23;;;77.60;2227.20;;;;;;5033870;28;20072;-63
2023/01/27 02:58:04;;;;;;;20.40;13.68;;;;;;;;;;5033789;28;20564;-61
2023/01/27 03:00:30;;;;;;;15.55;11.45;;;;;;;;;;5033394;28;20065;-62
2023/01/27 03:02:56;;;;;;;14.65;10.98;;;;;;;;;;5033666;28;20930;-62
2023/01/27 03:05:22;;;;;;;15.73;9.65;;;;;;;;;;5033534;28;20475;-62
2023/01/27 03:07:48;;;;;;;26.35;15.93;;;;;;;;;;5033100;28;20024;-64
2023/01/27 03:10:14;;;;;;;18.77;13.25;;;;;;;;;;5033614;28;20379;-62
2023/01/27 03:12:40;;;;;;;21.50;12.35;;;;;;;;;;5033397;28;20048;-62
2023/01/27 03:20:35;;;;;;;26.13;13.20;;;77.00;2227.20;;;;;;5033628;28;20036;-63
2023/01/27 03:23:01;;;;;;;21.13;12.85;;;77.20;2227.20;;;;;;5032647;28;20033;-64
2023/01/27 03:25:27;;;;;;;19.48;11.23;;;77.00;2227.20;;;;;;5033175;28;20032;-62
2023/01/27 03:27:53;;;;;;;21.25;11.95;;;77.10;2227.20;;;;;;5033333;28;20026;-62
2023/01/27 03:30:18;;;;;;;13.25;9.27;;;76.90;2227.20;;;;;;5033069;28;20025;-63
2023/01/27 03:32:47;;;;;;;54.45;28.75;;;76.80;2227.20;;;;;;5033238;28;20052;-62
2023/01/27 03:35:14;;;;;;;17.08;10.57;;;76.90;2227.20;;;;;;5032799;28;20453;-62
2023/01/27 03:48:39;;;;;;;13.75;9.43;;;52.10;2227.20;;;;;;5032578;28;20488;-62
2023/01/27 03:51:06;;;;;;;16.30;9.02;;;52.00;2227.20;;;;;;5032777;28;20036;-62
2023/01/27 03:53:35;;;;;;;57.17;29.52;;;52.00;2227.20;;;;;;5014749;28;20434;-64
2023/01/27 03:56:02;;;;;;;15.90;10.63;;;51.90;2227.20;;;;;;5032577;28;20034;-62
2023/01/27 03:58:30;;;;;;;30.42;18.98;;;52.10;2227.20;;;;;;5032645;28;20017;-63
2023/01/27 04:01:20;;;;;;;14.75;10.23;;;52.10;2227.20;;;;;;5032720;28;20029;-62
2023/01/27 04:09:38;;;;;;;17.40;12.68;;;52.10;2227.20;;;;;;4990836;28;20085;-63
2023/01/27 04:12:05;;;;;;;16.80;10.65;;;52.10;2227.20;;;;;;4991041;28;20030;-65
2023/01/27 04:14:34;;;;;;;13.00;7.95;;;52.10;2227.20;;;;;;4990842;28;20047;-63
2023/01/27 04:17:17;;;;;;;13.40;8.77;;;51.90;2227.20;;;;;;4990686;28;20117;-63
2023/01/27 04:19:42;;;;;;;18.85;11.93;;;51.90;2227.20;;;;;;4991090;28;20126;-63
2023/01/27 04:22:10;;;;;;;11.95;7.97;;;51.90;2227.20;;;;;;4990796;28;20050;-63
2023/01/27 04:24:36;;;;;;;14.60;9.70;;;52.00;2227.20;;;;;;4990681;28;20591;-63
2023/01/27 04:27:03;;;;;;;12.77;8.23;;;52.10;2227.20;;;;;;4990770;28;20034;-62
2023/01/27 04:29:33;;;;;;;16.17;10.93;;;52.10;2227.20;;;;;;4990678;28;20109;-65
2023/01/27 04:31:59;;;;;;;13.45;8.20;;;52.10;2227.20;;;;;;4990475;28;20050;-64
2023/01/27 04:34:26;;;;;;;11.77;8.13;;;76.80;2227.20;;;;;;4990498;28;20070;-63
2023/01/27 04:36:53;;;;;;;10.55;6.63;;;76.90;2227.20;;;;;;4990592;28;20468;-64
2023/01/27 04:39:19;;;;;;;15.20;10.45;;;76.80;2227.20;;;;;;4992644;28;20030;-64
2023/01/27 04:41:45;;;;;;;10.73;6.20;;;76.80;2227.20;;;;;;5031886;28;20017;-62
2023/01/27 04:44:11;;;;;;;10.55;6.55;;;76.90;2227.20;;;;;;5031686;28;20482;-62
2023/01/27 04:46:37;;;;;;;11.80;6.88;;;76.90;2227.20;;;;;;5031437;28;20052;-63
2023/01/27 04:49:04;;;;;;;11.63;8.13;;;76.80;2227.20;;;;;;5031754;28;20033;-63
2023/01/27 04:51:30;;;;;;;13.15;7.60;;;52.10;2227.20;;;;;;5031453;28;20068;-62
2023/01/27 04:53:56;;;;;;;11.80;8.13;;;52.10;2227.20;;;;;;5031397;28;20048;-62
2023/01/27 04:56:25;;;;;;;14.00;8.90;;;52.10;2227.20;;;;;;5031542;28;20021;-62
2023/01/27 04:58:51;;;;;;;16.60;9.40;;;52.00;2227.20;;;;;;5031270;28;20026;-63
2023/01/27 05:01:17;;;;;;;15.95;9.75;;;51.90;2227.20;;;;;;5031525;28;20033;-63
2023/01/27 05:03:43;;;;;;;16.27;11.20;;;51.90;2227.20;;;;;;5031484;28;20112;-62
2023/01/27 05:06:10;;;;;;;19.42;9.98;;;51.90;2227.20;;;;;;5031223;28;20120;-62
2023/01/27 05:08:36;;;;;;;19.80;9.82;;;51.90;2227.20;;;;;;5031376;28;20036;-62
2023/01/27 05:11:02;;;;;;;22.77;10.98;;;52.00;2227.20;;;;;;5031258;28;20040;-62
2023/01/27 05:13:28;;;;;;;15.27;8.73;;;51.90;2227.20;;;;;;5030936;28;20109;-63
2023/01/27 05:16:15;;;;;;;31.30;12.60;;;51.80;2227.20;;;;;;5031371;28;20112;-64
2023/01/27 05:18:42;;;;;;;16.42;8.35;;;51.90;2227.20;;;;;;5030915;28;20037;-62
2023/01/27 05:21:11;;;;;;;64.65;26.33;;;51.90;2227.20;;;;;;5030840;28;20032;-62
2023/01/27 05:23:37;;;;;;;28.00;13.82;;;51.90;2227.20;;;;;;5030752;28;20034;-62
2023/01/27 05:26:15;;;;;;;26.02;13.25;;;51.90;2227.20;;;;;;5031206;28;20025;-62
2023/01/27 05:28:42;;;;;;;32.67;14.48;;;51.80;2227.20;;;;;;5030808;28;20116;-62
2023/01/27 05:31:11;;;;;;;17.70;12.23;;;51.80;2227.20;;;;;;5030872;28;20485;-62
2023/01/27 05:33:37;;;;;;;25.35;14.38;;;51.80;2227.20;;;;;;5031163;28;20059;-63
2023/01/27 05:36:05;;;;;;;34.92;16.58;;;51.70;2227.20;;;;;;5030908;28;20037;-64
2023/01/27 05:38:31;;;;;;;13.20;7.68;;;51.80;2227.20;;;;;;5030491;28;20459;-62
2023/01/27 05:41:00;;;;;;;26.65;15.32;;;51.70;2227.20;;;;;;5030965;28;20117;-63
2023/01/27 05:43:28;;;;;;;57.92;28.50;;;51.90;2227.20;;;;;;5030722;28;20018;-63
2023/01/27 05:46:04;;;;;;;81.70;33.60;;;51.90;2227.20;;;;;;5030724;28;20057;-62
2023/01/27 05:48:30;;;;;;;16.45;9.70;;;52.00;2227.20;;;;;;5030634;28;20037;-64
2023/01/27 05:50:57;;;;;;;28.63;15.80;;;52.00;2227.20;;;;;;5030706;28;20088;-63
2023/01/27 05:53:23;;;;;;;20.85;12.00;;;52.00;2227.20;;;;;;5030655;28;20036;-62
2023/01/27 05:55:50;;;;;;;19.52;11.82;;;51.90;2227.20;;;;;;5030555;28;20391;-64
2023/01/27 05:58:16;;;;;;;27.75;15.32;;;51.90;2227.20;;;;;;5030596;28;20028;-67
2023/01/27 06:00:42;;;;;;;16.33;10.05;;;52.00;2227.20;;;;;;5030618;28;20030;-63
2023/01/27 06:03:08;;;;;;;34.97;18.48;;;52.10;2227.20;;;;;;5030467;28;20018;-65
2023/01/27 06:05:34;;;;;;;21.83;14.57;;;52.10;2227.20;;;;;;5030565;28;20440;-62
2023/01/27 06:07:59;;;;;;;19.70;11.88;;;52.10;2227.20;;;;;;5030091;28;20029;-62
2023/01/27 06:10:25;;;;;;;17.58;9.38;;;52.00;2227.20;;;;;;5030118;28;20049;-65
2023/01/27 06:12:51;;;;;;;24.25;13.63;;;51.90;2227.20;;;;;;5030341;28;20463;-62
2023/01/27 06:15:17;;;;;;;31.33;21.27;;;51.90;2227.20;;;;;;5030509;28;20061;-66
2023/01/27 06:17:42;;;;;;;20.92;14.38;;;51.90;2227.20;;;;;;5030422;28;20383;-62
2023/01/27 06:20:09;;;;;;;21.05;17.75;;;51.90;2227.20;;;;;;5030182;28;20029;-63
2023/01/27 06:22:36;;;;;;;14.68;12.10;;;51.80;2227.20;;;;;;5030133;28;20026;-66
2023/01/27 06:25:01;;;;;;;14.45;10.07;;;51.90;2227.20;;;;;;5012781;28;20034;-65
2023/01/27 06:27:27;;;;;;;35.63;26.60;;;51.90;2227.20;;;;;;5037707;28;20079;-63
2023/01/27 06:29:53;;;;;;;35.10;22.60;;;52.00;2227.20;;;;;;5039596;28;20034;-67
2023/01/27 06:32:18;;;;;;;23.85;19.77;;;52.10;2227.20;;;;;;5038984;28;20078;-63
2023/01/27 06:34:44;;;;;;;20.20;14.60;;;52.10;2227.20;;;;;;5040646;28;20479;-63
2023/01/27 06:37:10;;;;;;;22.08;17.13;;;52.10;2227.20;;;;;;5038784;28;20069;-64
2023/01/27 06:39:35;;;;;;;16.08;10.77;;;52.00;2227.20;;;;;;5039415;28;20032;-65
2023/01/27 06:42:01;;;;;;;20.75;18.55;;;52.10;2227.20;;;;;;5029900;28;20053;-62
2023/01/27 06:44:27;;;;;;;18.02;14.27;;;52.10;2227.20;;;;;;5030099;28;20022;-63
2023/01/27 06:46:52;;;;;;;14.93;9.85;;;52.10;2227.20;;;;;;5048447;28;20067;-62
2023/01/27 06:49:18;;;;;;;26.65;22.63;;;76.80;2227.20;;;;;;5049931;28;20088;-64
2023/01/27 06:51:44;;;;;;;18.20;14.90;;;52.10;2227.20;;;;;;5049722;28;20098;-63
2023/01/27 06:54:10;;;;;;;18.20;15.68;;;52.10;2227.20;;;;;;5049434;28;20044;-62
2023/01/27 06:56:36;;;;;;;19.75;10.73;;;52.10;2227.20;;;;;;5050229;28;20057;-62
2023/01/27 06:59:02;;;;;;;24.65;22.13;;;76.90;2227.20;;;;;;5050175;28;20068;-62
2023/01/27 07:01:27;;;;;;;17.13;12.20;;;76.80;2227.20;;;;;;5049875;28;20459;-63
2023/01/27 07:03:53;;;;;;;18.60;14.18;;;76.80;2227.20;;;;;;5057893;28;20020;-62
2023/01/27 07:06:19;;;;;;;16.35;12.20;;;76.90;2227.20;;;;;;5062400;28;20348;-63
2023/01/27 07:08:46;;;;;;;12.73;9.25;;;76.90;2227.20;;;;;;5050958;28;20024;-61
2023/01/27 07:11:12;;;;;;;11.95;8.48;;;76.90;2227.20;;;;;;5049848;28;20033;-63
2023/01/27 07:13:38;;;;;;;14.70;9.88;;;76.90;2227.20;;;;;;5049342;28;20029;-61
2023/01/27 07:16:04;;;;;;;15.52;10.77;;;77.00;2227.20;;;;;;5049957;28;20036;-61
2023/01/27 07:18:30;;;;;;;17.15;9.63;;;77.10;2227.20;;;;;;5049480;28;20029;-62
2023/01/27 07:20:56;;;;;;;14.48;10.50;;;77.10;2227.20;;;;;;5049837;28;20462;-65
2023/01/27 07:23:21;;;;;;;15.63;10.75;;;77.10;2227.20;;;;;;5053105;28;20021;-62
2023/01/27 07:25:47;;;;;;;13.32;9.55;;;77.10;2227.20;;;;;;5053097;28;20029;-62
2023/01/27 07:28:13;;;;;;;13.85;8.45;;;76.80;2227.20;;;;;;5053256;28;20032;-62
2023/01/27 07:30:39;;;;;;;14.38;8.80;;;52.10;2227.20;;;;;;5053062;28;20029;-62
2023/01/27 07:33:06;;;;;;;18.13;12.88;;;76.90;2227.20;;;;;;5053174;28;20025;-62
2023/01/27 07:35:34;;;;;;;14.30;11.30;;;77.10;2227.20;;;;;;5053004;28;20044;-63
2023/01/27 07:37:59;;;;;;;20.23;15.20;;;77.20;2227.20;;;;;;5052796;28;20022;-63
2023/01/27 07:40:25;;;;;;;21.42;15.60;;;;;;;;;;5052939;28;20075;-63
2023/01/27 07:42:51;;;;;;;202.65;134.73;;;102.50;2227.20;;;;;;5052885;28;20043;-62
2023/01/27 07:45:17;;;;;;;18.90;14.98;;;77.60;2227.20;;;;;;5052643;28;20483;-62
2023/01/27 07:47:42;;;;;;;15.82;12.55;;;77.70;2227.20;;;;;;5052891;28;20098;-61
2023/01/27 07:50:09;;;;;;;24.65;17.02;;;77.70;2227.20;;;;;;5052670;28;20025;-63
2023/01/27 07:52:34;;;;;;;15.55;9.90;;;102.40;2227.20;;;;;;5052583;28;20377;-64
2023/01/27 07:55:00;;;;;;;23.77;15.60;;;102.50;2227.20;;;;;;5052403;28;20048;-62
2023/01/27 07:57:26;;;;;;;16.48;14.45;;;102.60;2227.20;;;;;;5052574;28;20028;-62
2023/01/27 07:59:55;;;;;;;15.00;10.50;;;102.40;2227.20;;;;;;5052820;28;20032;-61
2023/01/27 08:02:22;;;;;;;1108.70;781.85;;;102.60;2227.20;;;;;;5052333;28;20021;-62
2023/01/27 08:04:49;;;;;;;172.48;146.38;;;102.60;2227.20;;;;;;5052460;28;20032;-62
2023/01/27 08:07:16;;;;;;;28.33;19.90;;;102.80;2227.20;;;;;;5052633;28;20029;-65
2023/01/27 08:09:41;;;;;;;18.80;11.73;;;103.00;2227.20;;;;;;5052019;28;20511;-61
2023/01/27 08:12:07;;;;;;;15.48;10.57;;;102.90;2227.20;;;;;;5052391;28;20028;-62
2023/01/27 08:14:33;;;;;;;21.42;14.75;;;103.10;2227.20;;;;;;5052471;28;20501;-62
2023/01/27 08:16:59;;;;;;;44.60;35.60;;;103.20;2227.20;;;;;;5052087;28;20025;-61
2023/01/27 08:19:25;;;;;;;17.52;12.45;;;103.20;2227.20;;;;;;5052399;28;20021;-62
2023/01/27 08:21:51;;;;;;;16.90;10.23;;;103.10;2227.20;;;;;;5051927;28;20451;-62
2023/01/27 08:24:16;;;;;;;16.23;10.05;;;103.00;2227.20;;;;;;5051897;28;20025;-63
2023/01/27 08:26:42;;;;;;;16.05;9.68;;;103.10;2227.20;;;;;;5052150;28;20146;-62
2023/01/27 08:29:08;;;;;;;13.43;8.60;;;103.10;2227.20;;;;;;5052033;28;20025;-63
2023/01/27 08:31:33;;;;;;;16.15;13.00;;;103.30;2227.20;;;;;;5052024;28;20024;-65
2023/01/27 08:33:59;;;;;;;15.55;10.38;;;128.40;2252.80;;;;;;5051527;28;20241;-61
2023/01/27 08:36:25;;;;;;;15.82;11.13;;;128.50;2252.80;;;;;;5051979;28;20036;-62
2023/01/27 08:38:51;;;;;;;15.98;10.35;;;128.80;2252.80;;;;;;5051494;28;20479;-64
2023/01/27 08:41:22;;;;;;;15.98;11.13;;;153.70;2252.80;;;;;;5051901;28;20033;-64
2023/01/27 08:43:48;;;;;;;16.40;10.90;;;153.80;2252.80;;;;;;5052022;28;20056;-61
2023/01/27 08:46:17;;;;;;;13.30;9.68;;;154.10;2252.80;;;;;;5046464;28;20441;-61
2023/01/27 08:48:43;;;;;;;19.05;11.88;;;154.10;2252.80;;;;;;5039206;28;20033;-62
2023/01/27 08:51:11;;;;;;;18.15;11.95;;;154.40;2252.80;;;;;;5040984;28;20024;-60
2023/01/27 08:53:37;;;;;;;26.40;18.08;;;154.50;2252.80;;;;;;5033718;28;20424;-61
2023/01/27 08:56:06;;;;;;;20.65;13.43;;;179.20;2252.80;;;;;;5031549;28;20064;-61
2023/01/27 08:58:32;;;;;;;41.33;28.45;;;;;;;;;;5031287;28;20527;-60
2023/01/27 09:01:00;;;;;;;23.48;20.65;;;179.40;2252.80;;;;;;5031235;28;20414;-61
2023/01/27 09:03:26;;;;;;;22.85;16.75;;;179.40;2252.80;;;;;;5031419;28;20025;-60
2023/01/27 09:05:52;;;;;;;23.70;17.55;;;154.50;2252.80;;;;;;5031393;28;20060;-61
2023/01/27 09:08:18;;;;;;;17.05;11.73;;;179.50;2252.80;;;;;;5031055;28;20034;-61
2023/01/27 09:10:43;;;;;;;19.38;14.60;;;179.60;2252.80;;;;;;5031428;28;20040;-61
2023/01/27 09:13:11;;;;;;;17.58;13.15;;;179.70;2252.80;;;;;;5031734;28;20511;-62
2023/01/27 09:15:37;;;;;;;14.10;10.07;;;180.10;2252.80;;;;;;5031502;28;20116;-60
2023/01/27 09:18:04;;;;;;;14.95;13.35;;;204.80;2252.80;;;;;;5031176;28;20026;-61
2023/01/27 09:20:30;;;;;;;12.95;9.73;;;180.10;2252.80;;;;;;5030871;28;20129;-61
2023/01/27 09:22:56;;;;;;;16.73;14.27;;;204.80;2252.80;;;;;;5030566;28;20037;-60
2023/01/27 09:25:23;;;;;;;13.70;9.95;;;205.00;2252.80;;;;;;5030969;28;20041;-60
2023/01/27 09:27:53;;;;;;;13.02;11.55;;;204.90;2252.80;;;;;;5030955;28;20041;-60
2023/01/27 09:30:19;;;;;;;9.35;8.15;;;180.00;2252.80;;;;;;5030978;28;20064;-60
2023/01/27 09:32:45;;;;;;;10.88;8.75;;;204.90;2252.80;;;;;;5030903;28;20064;-60
2023/01/27 09:35:10;;;;;;;12.02;9.23;;;204.90;2252.80;;;;;;5030719;28;20033;-60
2023/01/27 09:37:46;;;;;;;13.30;11.80;;;180.00;2252.80;;;;;;5030750;28;20026;-60
2023/01/27 09:40:35;;;;;;;10.88;7.20;;;180.10;2252.80;;;;;;5030780;28;20026;-60
2023/01/27 09:43:18;;;;;;;12.88;9.00;;;205.00;2252.80;;;;;;5030630;28;20033;-59
2023/01/27 09:46:07;;;;;;;;;;;205.30;2252.80;;;;;;5038248;28;20076;-61
2023/01/27 09:48:58;;;;;;;10.20;8.05;;;205.40;2252.80;;;;;;4989130;28;19913;-61
2023/01/27 09:52:01;;;;;;;11.05;8.05;;;205.20;2252.80;;;;;;4989273;28;20076;-60
2023/01/27 09:54:39;;;;;;;10.88;8.70;;;205.20;2252.80;;;;;;4949930;29;20055;-61
2023/01/27 09:57:18;;;;;;;10.07;8.45;;;205.40;2252.80;;;;;;4950454;29;20042;-61
2023/01/27 10:00:15;;;;;;;10.63;8.30;;;205.10;2252.80;;;;;;4950342;29;20122;-61
2023/01/27 10:03:11;;;;;;;12.23;8.25;;;179.80;2252.80;;;;;;4950058;29;20031;-60
2023/01/27 10:05:43;;;;;;;12.52;9.45;;;179.60;2252.80;;;;;;4949815;29;20087;-63
2023/01/27 10:09:01;;;;;;;15.02;10.30;;;179.40;2252.80;;;;;;4950140;29;20023;-61
2023/01/27 10:11:31;;;;;;;10.30;7.85;;;179.40;2252.80;;;;;;4948337;28;20442;-60
2023/01/27 10:14:12;;;;;;;11.68;8.45;;;154.50;2252.80;;;;;;4949946;29;20478;-59
2023/01/27 10:17:01;;;;;;;11.23;9.35;;;154.30;2252.80;;;;;;4950006;29;20044;-61
2023/01/27 10:19:59;;;;;;;11.35;8.40;;;154.40;2252.80;;;;;;4950035;29;20035;-60
2023/01/27 10:22:44;;;;;;;13.98;8.85;;;154.40;2252.80;;;;;;4941711;28;20051;-59
2023/01/27 10:25:36;;;;;;;13.98;8.35;;;154.50;2252.80;;;;;;4962913;28;20042;-61
2023/01/27 10:28:10;;;;;;;15.48;11.35;;;154.40;2252.80;;;;;;5009850;28;20033;-60
2023/01/27 10:30:40;;;;;;;45.88;30.35;;;154.10;2252.80;;;;;;5032085;28;20483;-61
2023/01/27 10:33:20;;;;;;;13.55;8.60;;;154.00;2252.80;;;;;;5050125;28;20037;-61
2023/01/27 10:35:52;;;;;;;36.00;21.73;;;154.00;2252.80;;;;;;5034687;28;20052;-60
2023/01/27 10:38:36;;;;;;;20.10;13.30;;;153.90;2252.80;;;;;;5045549;28;20017;-60
2023/01/27 10:41:21;;;;;;;;;;;153.60;2252.80;;;;;;5029998;28;20270;-60
2023/01/27 10:44:32;;;;;;;11.07;7.38;;;153.60;2252.80;;;;;;5029481;28;19954;-61
2023/01/27 10:47:07;;;;;;;11.60;8.57;;;153.80;2252.80;;;;;;5045099;28;20139;-60
2023/01/27 10:49:46;;;;;;;11.88;7.85;;;153.90;2252.80;;;;;;5047238;28;20024;-61
2023/01/27 10:52:14;;;;;;;12.13;8.13;;;153.90;2252.80;;;;;;5044949;28;20031;-59
2023/01/27 10:54:49;;;;;;;12.18;8.82;;;153.60;2252.80;;;;;;5044982;28;20063;-60
2023/01/27 10:57:47;;;;;;;13.00;8.73;;;128.90;2252.80;;;;;;5048651;28;20032;-61
2023/01/27 11:00:15;;;;;;;15.90;11.55;;;128.70;2252.80;;;;;;5051269;28;20044;-60
2023/01/27 11:02:57;;;;;;;12.50;8.60;;;128.50;2252.80;;;;;;5050926;28;20025;-60
2023/01/27 11:05:53;;;;;;;14.52;10.60;;;128.40;2252.80;;;;;;5051304;28;20029;-59
2023/01/27 11:08:34;;;;;;;12.80;9.05;;;128.10;2252.80;;;;;;5049148;28;20029;-60
2023/01/27 11:13:47;;;;;;;13.48;9.07;;;103.20;2227.20;;;;;;5050668;28;20114;-60
2023/01/27 11:16:16;;;;;;;13.68;9.35;;;103.30;2227.20;;;;;;5050209;28;20052;-60
2023/01/27 11:18:45;;;;;;;12.27;8.98;;;103.30;2227.20;;;;;;5050793;28;20039;-61
2023/01/27 11:21:27;;;;;;;12.13;8.60;;;103.20;2227.20;;;;;;5050354;28;20117;-60
2023/01/27 11:23:55;;;;;;;40.55;34.05;;;103.10;2227.20;;;;;;5049998;28;20566;-61
2023/01/27 11:26:41;;;;;;;22.23;16.60;;;103.10;2227.20;;;;;;5050338;28;20052;-60
2023/01/27 11:29:34;;;;;;;29.08;17.40;;;103.10;2227.20;;;;;;5030708;28;20930;-61
2023/01/27 11:32:17;;;;;;;11.05;8.57;;;102.90;2227.20;;;;;;5050210;28;20552;-60
2023/01/27 11:35:12;;;;;;;49.00;26.43;;;102.80;2227.20;;;;;;5031424;28;20049;-61
2023/01/27 11:37:44;;;;;;;20.08;14.40;;;103.00;2227.20;;;;;;5049938;28;20262;-60
2023/01/27 11:40:18;;;;;;;16.35;9.90;;;;;;;;;;5049948;28;20032;-61
2023/01/27 11:42:44;;;;;;;17.25;12.27;;;;;;;;;;5050138;28;20461;-60
2023/01/27 11:45:15;;;;;;;14.52;10.80;;;;;;;;;;5050013;28;20028;-60
2023/01/27 11:47:41;;;;;;;16.77;12.35;;;;;;;;;;5050012;28;20075;-60
2023/01/27 11:50:13;;;;;;;15.18;10.65;;;;;;;;;;5049830;28;20028;-60
2023/01/27 11:52:39;;;;;;;17.85;11.13;;;;;;;;;;5049768;28;20021;-60
2023/01/27 11:55:06;;;;;;;15.30;9.73;;;;;;;;;;5050011;28;20051;-61
2023/01/27 11:57:33;;;;;;;21.92;12.20;;;;;;;;;;5049945;28;20036;-61
2023/01/27 12:00:03;;;;;;;17.52;11.13;;;;;;;;;;5049460;28;20482;-60
2023/01/27 12:02:35;;;;;;;15.70;10.60;;;;;;;;;;5049901;28;20025;-60
2023/01/27 12:05:01;;;;;;;16.67;11.93;;;;;;;;;;5049581;28;20020;-60
2023/01/27 12:07:34;;;;;;;16.50;10.88;;;;;;;;;;5048993;28;20060;-60
2023/01/27 12:10:00;;;;;;;;;;;;;;;;;;5049829;28;20025;-60
2023/01/27 12:12:27;;;;;;;16.95;11.05;;;;;;;;;;5049715;28;20351;-60
2023/01/27 12:14:54;;;;;;;13.15;9.80;;;;;;;;;;5049699;28;20684;-60
2023/01/27 12:17:39;;;;;;;15.45;10.07;;;;;;;;;;5049492;28;20486;-61
2023/01/27 12:20:17;;;;;;;17.23;10.98;;;;;;;;;;5049212;28;20029;-61
2023/01/27 12:22:48;;;;;;;23.27;16.90;;;;;;;;;;5035812;28;20087;-61
2023/01/27 12:25:23;;;;;;;17.65;11.80;;;;;;;;;;5039788;28;20450;-60
2023/01/27 12:27:57;;;;;;;15.25;11.07;;;;;;;;;;5038224;28;20029;-61
2023/01/27 12:30:24;;;;;;;16.80;11.45;;;;;;;;;;5035859;28;20030;-60
2023/01/27 12:32:51;;;;;;;21.55;13.70;;;;;;;;;;5036755;28;20029;-61
2023/01/27 12:35:20;;;;;;;21.08;13.32;;;;;;;;;;5034221;28;20033;-60
2023/01/27 12:37:47;;;;;;;18.17;12.15;;;;;;;;;;5031992;28;20108;-61
2023/01/27 12:40:19;;;;;;;17.70;12.15;;;;;;;;;;5032717;28;20589;-61
2023/01/27 12:42:52;;;;;;;17.17;11.27;;;;;;;;;;5032054;28;20120;-61
2023/01/27 12:45:29;;;;;;;24.38;18.33;;;;;;;;;;5035369;28;20866;-61
2023/01/27 12:47:58;;;;;;;20.63;14.45;;;;;;;;;;5070653;28;20029;-60
2023/01/27 12:50:26;;;;;;;20.75;15.57;;;;;;;;;;5060982;28;20037;-60
2023/01/27 12:53:12;;;;;;;22.15;14.15;;;;;;;;;;5060316;28;20036;-60
2023/01/27 12:55:39;;;;;;;20.48;13.20;;;;;;;;;;5060763;28;20205;-59
2023/01/27 12:58:05;;;;;;;30.20;19.15;;;;;;;;;;5071647;28;20024;-60
2023/01/27 13:00:32;;;;;;;19.73;13.18;;;;;;;;;;5068020;28;20462;-60
2023/01/27 13:03:03;;;;;;;24.25;18.25;;;;;;;;;;5063803;28;20021;-60
2023/01/27 13:05:34;;;;;;;19.85;14.40;;;;;;;;;;5061443;28;20025;-60
2023/01/27 13:08:00;;;;;;;26.85;20.38;;;;;;;;;;5070502;28;20112;-60
2023/01/27 13:10:26;;;;;;;21.83;13.95;;;;;;;;;;5071264;28;20029;-60
2023/01/27 13:13:03;;;;;;;20.83;13.57;;;;;;;;;;5071258;28;20021;-60